createdAt,value
2023-01-31T00:04:07.413Z,10.52
2023-01-31T00:09:12.589Z,12.67
2023-01-31T00:14:20.364Z,12.23
2023-01-31T00:19:30.472Z,13.60
2023-01-31T00:24:37.804Z,14.23
2023-01-31T00:29:43.053Z,17.20
2023-01-31T00:34:47.147Z,14.85
2023-01-31T00:39:48.761Z,13.52
2023-01-31T00:44:55.843Z,5.18
2023-01-31T00:50:01.624Z,13.68
2023-01-31T00:55:10.699Z,14.38
2023-01-31T01:00:13.815Z,14.63
2023-01-31T01:05:18.541Z,9.90
2023-01-31T01:10:29.634Z,13.20
2023-01-31T01:15:37.574Z,10.85
2023-01-31T01:20:46.717Z,12.75
2023-01-31T01:25:49.228Z,14.80
2023-01-31T01:31:02.751Z,12.57
2023-01-31T01:36:23.167Z,14.13
2023-01-31T01:41:35.446Z,15.43
2023-01-31T01:46:48.050Z,10.70
2023-01-31T01:51:52.567Z,17.75
2023-01-31T01:57:09.335Z,14.55
2023-01-31T02:02:18.866Z,9.57
2023-01-31T02:07:21.615Z,11.45
2023-01-31T02:12:25.200Z,6.85
2023-01-31T02:17:29.357Z,12.02
2023-01-31T02:23:32.618Z,11.13
2023-01-31T02:28:56.946Z,7.22
2023-01-31T02:34:12.956Z,9.43
2023-01-31T02:40:01.915Z,10.63
2023-01-31T02:45:33.418Z,13.80
2023-01-31T02:50:52.077Z,11.95
2023-01-31T02:56:31.829Z,14.90
2023-01-31T03:01:46.486Z,13.30
2023-01-31T03:07:08.404Z,9.82
2023-01-31T03:12:30.651Z,14.80
2023-01-31T03:17:52.077Z,12.23
2023-01-31T03:23:00.898Z,9.60
2023-01-31T03:28:07.580Z,9.77
2023-01-31T03:33:29.831Z,8.77
2023-01-31T03:38:54.377Z,9.63
2023-01-31T03:44:20.827Z,12.52
2023-01-31T03:49:28.413Z,10.77
2023-01-31T03:54:38.703Z,11.27
2023-01-31T03:59:43.118Z,9.02
2023-01-31T04:04:58.119Z,12.00
2023-01-31T04:10:02.041Z,13.40
2023-01-31T04:15:08.446Z,11.50
2023-01-31T04:20:13.110Z,9.18
2023-01-31T04:25:14.671Z,9.60
2023-01-31T04:30:20.718Z,9.50
2023-01-31T04:35:30.911Z,9.27
2023-01-31T04:40:50.029Z,13.70
2023-01-31T04:45:56.095Z,14.10
2023-01-31T04:51:00.090Z,15.63
2023-01-31T04:56:05.826Z,13.40
2023-01-31T05:01:08.584Z,11.00
2023-01-31T05:06:10.215Z,11.68
2023-01-31T05:11:11.834Z,19.67
2023-01-31T05:16:18.755Z,11.75
2023-01-31T05:21:20.388Z,14.07
2023-01-31T05:26:24.273Z,11.02
2023-01-31T05:31:28.794Z,14.15
2023-01-31T05:36:33.832Z,10.25
2023-01-31T05:41:39.434Z,11.38
2023-01-31T05:52:05.081Z,11.95
2023-01-31T05:57:08.945Z,9.30
2023-01-31T06:02:15.270Z,10.50
2023-01-31T06:07:23.104Z,12.38
2023-01-31T06:12:29.702Z,7.32
2023-01-31T06:17:36.485Z,11.05
2023-01-31T06:22:57.823Z,11.75
2023-01-31T06:28:04.567Z,10.95
2023-01-31T06:33:07.289Z,9.40
2023-01-31T06:38:09.293Z,11.27
2023-01-31T06:43:15.367Z,18.65
2023-01-31T06:48:17.623Z,14.85
2023-01-31T06:53:23.705Z,8.63
2023-01-31T06:58:28.149Z,14.55
2023-01-31T07:03:31.379Z,15.88
2023-01-31T07:08:36.108Z,15.25
2023-01-31T07:13:49.021Z,8.03
2023-01-31T07:18:56.427Z,7.57
2023-01-31T07:24:00.506Z,7.43
2023-01-31T07:29:05.602Z,15.10
2023-01-31T07:34:17.978Z,13.55
2023-01-31T07:39:21.710Z,14.30
2023-01-31T07:44:24.512Z,15.73
2023-01-31T07:49:32.140Z,13.15
2023-01-31T07:54:40.319Z,18.80
2023-01-31T07:59:44.599Z,11.73
2023-01-31T08:04:51.162Z,13.32
2023-01-31T08:09:52.960Z,12.20
2023-01-31T08:14:56.184Z,9.43
2023-01-31T08:20:00.321Z,11.60
2023-01-31T08:25:05.608Z,14.15
2023-01-31T08:35:29.348Z,8.85
2023-01-31T08:40:40.219Z,14.20
2023-01-31T08:45:47.856Z,13.02
2023-01-31T08:50:51.722Z,11.90
2023-01-31T08:56:07.843Z,10.35
2023-01-31T09:01:14.383Z,12.88
2023-01-31T09:06:23.373Z,11.68
2023-01-31T09:11:27.842Z,13.00
2023-01-31T09:16:31.329Z,9.40
2023-01-31T09:21:35.604Z,13.50
2023-01-31T09:26:39.626Z,12.98
2023-01-31T09:31:54.588Z,12.45
2023-01-31T09:36:57.716Z,12.50
2023-01-31T09:42:18.427Z,11.88
2023-01-31T09:47:30.914Z,9.70
2023-01-31T09:52:35.378Z,9.38
2023-01-31T09:58:07.452Z,10.48
2023-01-31T10:03:18.730Z,11.20
2023-01-31T10:08:39.904Z,12.30
2023-01-31T10:13:55.615Z,8.80
2023-01-31T10:19:06.348Z,13.02
2023-01-31T10:24:22.123Z,9.02
2023-01-31T10:29:32.718Z,10.15
2023-01-31T10:34:54.658Z,8.48
2023-01-31T10:40:04.040Z,10.82
2023-01-31T10:45:23.208Z,7.03
2023-01-31T10:50:40.216Z,13.60
2023-01-31T10:55:54.054Z,6.93
2023-01-31T11:00:58.379Z,19.27
2023-01-31T11:06:03.920Z,11.55
2023-01-31T11:11:12.905Z,7.97
2023-01-31T11:16:19.416Z,11.50
2023-01-31T11:21:37.799Z,9.23
2023-01-31T11:26:42.553Z,8.88
2023-01-31T11:31:50.487Z,12.68
2023-01-31T11:36:53.632Z,18.98
2023-01-31T11:41:58.111Z,10.15
2023-01-31T11:47:10.969Z,8.02
2023-01-31T11:52:14.817Z,12.90
2023-01-31T11:57:26.829Z,8.60
2023-01-31T12:02:37.858Z,10.93
2023-01-31T12:12:45.830Z,7.43
2023-01-31T12:17:50.678Z,12.57
2023-01-31T12:23:03.419Z,10.35
2023-01-31T12:28:33.110Z,12.05
2023-01-31T12:34:03.993Z,9.18
2023-01-31T12:39:28.376Z,11.13
2023-01-31T12:44:46.633Z,6.75
2023-01-31T12:55:41.831Z,5.95
2023-01-31T13:01:07.443Z,18.77
2023-01-31T13:06:15.535Z,8.52
2023-01-31T13:11:55.955Z,9.98
2023-01-31T13:17:17.160Z,11.90
2023-01-31T13:22:27.769Z,7.80
2023-01-31T13:27:39.294Z,14.48
2023-01-31T13:32:51.292Z,7.15
2023-01-31T13:38:02.173Z,8.90
2023-01-31T13:43:19.139Z,7.45
2023-01-31T13:48:52.788Z,5.63
2023-01-31T13:54:43.952Z,12.32
2023-01-31T13:59:54.743Z,10.40
2023-01-31T14:05:28.185Z,11.65
2023-01-31T14:10:40.365Z,13.57
2023-01-31T14:15:54.511Z,11.30
2023-01-31T14:21:30.901Z,6.40
2023-01-31T14:26:43.796Z,10.35
2023-01-31T14:31:50.194Z,8.27
2023-01-31T14:37:13.749Z,7.75
2023-01-31T14:42:49.459Z,11.00
2023-01-31T14:47:53.300Z,7.07
2023-01-31T14:53:25.017Z,6.93
2023-01-31T14:58:32.118Z,6.93
2023-01-31T15:03:50.061Z,7.68
2023-01-31T15:09:30.032Z,10.77
2023-01-31T15:14:49.649Z,10.32
2023-01-31T15:20:15.087Z,7.10
2023-01-31T15:25:48.029Z,8.02
2023-01-31T15:30:50.770Z,6.40
2023-01-31T15:35:54.686Z,6.05
2023-01-31T15:41:20.162Z,6.68
2023-01-31T15:46:42.390Z,5.53
2023-01-31T15:51:46.014Z,4.45
2023-01-31T15:56:47.588Z,8.23
2023-01-31T16:01:56.021Z,8.93
2023-01-31T16:07:03.595Z,7.63
2023-01-31T16:12:08.298Z,4.53
2023-01-31T16:17:12.716Z,5.78
2023-01-31T16:22:31.777Z,6.78
2023-01-31T16:27:38.160Z,4.65
2023-01-31T16:32:47.919Z,6.68
2023-01-31T16:38:03.449Z,6.05
2023-01-31T16:43:34.327Z,8.63
2023-01-31T16:48:43.203Z,7.15
2023-01-31T16:53:59.695Z,5.63
2023-01-31T16:59:04.781Z,8.52
2023-01-31T17:04:11.841Z,6.75
2023-01-31T17:09:24.456Z,6.78
2023-01-31T17:14:29.119Z,8.77
2023-01-31T17:19:31.673Z,10.07
2023-01-31T17:24:34.498Z,8.07
2023-01-31T17:29:36.003Z,10.30
2023-01-31T17:34:38.828Z,9.85
2023-01-31T17:39:40.801Z,10.27
2023-01-31T17:44:47.065Z,6.80
2023-01-31T17:49:54.991Z,7.55
2023-01-31T17:55:02.032Z,5.50
2023-01-31T18:00:12.585Z,7.75
2023-01-31T18:05:18.669Z,8.45
2023-01-31T18:10:31.822Z,8.50
2023-01-31T18:15:39.921Z,4.95
2023-01-31T18:25:51.570Z,4.18
2023-01-31T18:31:01.812Z,8.82
2023-01-31T18:36:03.799Z,6.63
2023-01-31T18:41:10.805Z,7.45
2023-01-31T18:46:12.903Z,6.57
2023-01-31T18:51:15.697Z,4.63
2023-01-31T18:56:20.304Z,3.63
2023-01-31T19:01:26.988Z,5.20
2023-01-31T19:06:35.257Z,4.82
2023-01-31T19:11:45.449Z,7.65
2023-01-31T19:16:49.217Z,5.47
2023-01-31T19:22:02.082Z,4.07
2023-01-31T19:27:07.596Z,5.13
2023-01-31T19:32:12.165Z,4.72
2023-01-31T19:37:16.155Z,4.55
2023-01-31T19:42:20.615Z,5.43
2023-01-31T19:47:24.827Z,4.75
2023-01-31T19:52:33.837Z,4.55
2023-01-31T19:57:35.357Z,5.35
2023-01-31T20:02:43.445Z,5.43
2023-01-31T20:07:45.409Z,4.93
2023-01-31T20:12:47.064Z,6.63
2023-01-31T20:17:50.989Z,5.50
2023-01-31T20:22:58.822Z,4.70
2023-01-31T20:28:03.680Z,3.47
2023-01-31T20:33:08.925Z,6.85
2023-01-31T20:38:23.471Z,6.35
2023-01-31T20:43:27.516Z,4.80
2023-01-31T20:48:34.437Z,5.00
2023-01-31T20:53:38.298Z,4.93
2023-01-31T20:58:43.096Z,6.05
2023-01-31T21:03:51.915Z,4.85
2023-01-31T21:08:56.336Z,4.75
2023-01-31T21:14:02.387Z,6.07
2023-01-31T21:19:11.586Z,4.43
2023-01-31T21:24:22.787Z,5.40
2023-01-31T21:29:26.181Z,5.07
2023-01-31T21:34:27.935Z,4.70
2023-01-31T21:39:34.813Z,5.20
2023-01-31T21:44:41.461Z,5.18
2023-01-31T21:49:43.408Z,6.55
2023-01-31T21:54:52.910Z,5.72
2023-01-31T21:59:54.493Z,5.15
2023-01-31T22:05:01.442Z,5.60
2023-01-31T22:10:19.677Z,4.05
2023-01-31T22:15:24.775Z,6.22
2023-01-31T22:20:26.353Z,3.85
2023-01-31T22:25:33.008Z,4.28
2023-01-31T22:30:43.034Z,3.92
2023-01-31T22:35:49.257Z,3.97
2023-01-31T22:40:53.722Z,6.05
2023-01-31T22:46:04.776Z,3.88
2023-01-31T22:51:10.866Z,4.43
2023-01-31T23:01:28.361Z,3.63
2023-01-31T23:06:36.655Z,4.10
2023-01-31T23:11:38.415Z,4.15
2023-01-31T23:17:03.370Z,3.53
2023-01-31T23:22:04.971Z,5.40
2023-01-31T23:27:09.557Z,3.50
2023-01-31T23:32:17.295Z,3.42
2023-01-31T23:37:33.943Z,4.72
2023-01-31T23:42:45.988Z,3.72
2023-01-31T23:47:47.837Z,3.78
2023-01-31T23:52:52.399Z,3.33
2023-01-31T23:57:55.145Z,3.33
